createdAt,value
2022-08-10T00:00:51.571Z,2.70
2022-08-10T00:05:56.505Z,2.37
2022-08-10T00:10:58.335Z,2.40
2022-08-10T00:16:00.030Z,2.40
2022-08-10T00:21:01.702Z,2.57
2022-08-10T00:26:04.027Z,2.63
2022-08-10T00:31:05.831Z,2.43
2022-08-10T00:36:07.723Z,2.80
2022-08-10T00:41:09.447Z,2.70
2022-08-10T00:46:11.143Z,2.90
2022-08-10T00:51:12.819Z,2.90
2022-08-10T00:57:12.769Z,3.07
2022-08-10T01:02:08.539Z,2.43
2022-08-10T01:07:26.621Z,2.90
2022-08-10T01:12:50.346Z,3.00
2022-08-10T01:18:00.892Z,3.27
2022-08-10T01:23:21.244Z,3.00
2022-08-10T01:28:29.165Z,3.20
2022-08-10T01:34:02.465Z,3.20
2022-08-10T01:39:04.324Z,2.67
2022-08-10T01:44:11.406Z,2.87
2022-08-10T01:49:14.178Z,3.23
2022-08-10T01:54:19.889Z,3.30
2022-08-10T01:59:23.748Z,3.30
2022-08-10T02:04:26.022Z,3.37
2022-08-10T02:09:32.782Z,3.30
2022-08-10T02:14:40.813Z,3.30
2022-08-10T02:19:43.177Z,3.50
2022-08-10T02:24:44.865Z,3.00
2022-08-10T02:29:49.046Z,3.30
2022-08-10T02:34:51.235Z,3.40
2022-08-10T02:39:53.427Z,3.80
2022-08-10T02:45:23.630Z,3.33
2022-08-10T02:50:32.862Z,3.80
2022-08-10T02:55:42.579Z,4.03
2022-08-10T03:00:47.224Z,4.00
2022-08-10T03:05:50.973Z,3.90
2022-08-10T03:10:52.687Z,3.73
2022-08-10T03:15:54.413Z,4.10
2022-08-10T03:20:56.166Z,4.23
2022-08-10T03:25:57.970Z,3.83
2022-08-10T03:31:00.259Z,3.90
2022-08-10T03:36:40.265Z,4.30
2022-08-10T03:41:36.665Z,4.20
2022-08-10T03:46:40.587Z,3.90
2022-08-10T03:51:42.289Z,4.30
2022-08-10T03:56:44.113Z,4.23
2022-08-10T04:02:52.879Z,3.77
2022-08-10T04:07:07.693Z,3.93
2022-08-10T04:12:09.428Z,4.30
2022-08-10T04:17:14.068Z,4.50
2022-08-10T04:22:20.396Z,3.70
2022-08-10T04:27:22.064Z,4.30
2022-08-10T04:32:24.044Z,3.87
2022-08-10T04:37:25.772Z,3.90
2022-08-10T04:42:27.438Z,4.10
2022-08-10T04:47:57.896Z,4.40
2022-08-10T04:52:51.231Z,3.63
2022-08-10T04:57:53.010Z,4.47
2022-08-10T05:02:54.699Z,3.90
2022-08-10T05:07:57.067Z,3.80
2022-08-10T05:12:58.864Z,4.30
2022-08-10T05:18:06.801Z,4.03
2022-08-10T05:23:11.701Z,4.10
2022-08-10T05:28:13.383Z,4.40
2022-08-10T05:33:15.072Z,4.30
2022-08-10T05:38:17.042Z,4.50
2022-08-10T05:43:20.037Z,4.93
2022-08-10T05:48:41.894Z,4.50
2022-08-10T05:54:03.615Z,5.07
2022-08-10T05:59:05.289Z,4.80
2022-08-10T06:04:06.981Z,4.43
2022-08-10T06:09:08.703Z,4.57
2022-08-10T06:14:29.210Z,4.63
2022-08-10T06:19:31.058Z,4.43
2022-08-10T06:24:36.269Z,4.57
2022-08-10T06:29:38.052Z,4.37
2022-08-10T06:34:41.789Z,4.10
2022-08-10T06:39:44.344Z,4.30
2022-08-10T06:45:04.632Z,4.07
2022-08-10T06:50:10.829Z,4.30
2022-08-10T06:55:16.775Z,4.13
2022-08-10T07:00:20.530Z,4.20
2022-08-10T07:05:27.092Z,4.40
2022-08-10T07:10:46.080Z,5.00
2022-08-10T07:15:59.186Z,4.30
2022-08-10T07:21:02.221Z,3.73
2022-08-10T07:26:03.996Z,3.90
2022-08-10T07:31:35.413Z,3.60
2022-08-10T07:36:27.452Z,3.90
2022-08-10T07:41:31.889Z,4.30
2022-08-10T07:46:33.721Z,3.93
2022-08-10T08:24:04.976Z,3.20
2022-08-10T08:26:37.963Z,3.20
2022-08-10T08:32:01.073Z,3.50
2022-08-10T08:37:01.645Z,3.10
2022-08-10T08:42:35.553Z,2.90
2022-08-10T08:48:04.720Z,3.70
2022-08-10T08:53:22.961Z,2.97
2022-08-10T08:58:58.464Z,3.10
2022-08-10T09:04:34.069Z,3.03
2022-08-10T09:09:38.334Z,3.20
2022-08-10T09:15:40.880Z,2.53
2022-08-10T09:20:48.229Z,2.90
2022-08-10T09:26:07.931Z,3.20
2022-08-10T09:31:21.948Z,2.20
2022-08-10T09:37:04.152Z,2.33
2022-08-10T09:42:16.019Z,2.30
2022-08-10T09:47:58.566Z,2.70
2022-08-10T09:53:04.978Z,5.87
2022-08-10T09:58:15.327Z,2.70
2022-08-10T10:03:25.982Z,2.03
2022-08-10T10:08:36.437Z,3.13
2022-08-10T10:14:02.545Z,2.63
2022-08-10T10:19:25.749Z,2.83
2022-08-10T10:24:43.145Z,3.20
2022-08-10T10:30:06.218Z,2.90
2022-08-10T10:35:29.142Z,2.60
2022-08-10T10:41:07.104Z,2.27
2022-08-10T10:46:16.239Z,2.70
2022-08-10T10:51:53.735Z,2.50
2022-08-10T10:57:17.407Z,2.80
2022-08-10T11:02:32.474Z,2.40
2022-08-10T11:07:36.181Z,2.17
2022-08-10T11:12:57.676Z,2.30
2022-08-10T11:18:36.469Z,2.70
2022-08-10T11:24:48.749Z,2.50
2022-08-10T11:29:35.194Z,3.37
2022-08-10T11:35:34.626Z,2.70
2022-08-10T11:40:43.334Z,2.80
2022-08-10T11:45:52.128Z,2.23
2022-08-10T11:51:01.421Z,3.40
2022-08-10T11:56:03.608Z,2.60
2022-08-10T12:01:13.509Z,2.90
2022-08-10T12:06:28.933Z,2.30
2022-08-10T12:11:35.658Z,2.47
2022-08-10T12:16:39.678Z,2.50
2022-08-10T12:21:45.445Z,1.80
2022-08-10T12:27:00.396Z,9.27
2022-08-10T12:32:11.210Z,1.80
2022-08-10T12:37:33.440Z,2.33
2022-08-10T12:42:43.232Z,9.05
2022-08-10T12:48:31.366Z,2.35
2022-08-10T12:53:51.929Z,1.85
2022-08-10T12:59:00.248Z,2.00
2022-08-10T13:04:22.711Z,1.50
2022-08-10T13:09:25.942Z,19.48
2022-08-10T13:14:56.950Z,2.50
2022-08-10T13:20:08.185Z,1.50
2022-08-10T13:25:16.665Z,2.10
2022-08-10T13:30:37.581Z,1.60
2022-08-10T13:35:40.156Z,1.90
2022-08-10T13:40:41.997Z,1.80
2022-08-10T13:45:49.251Z,1.48
2022-08-10T13:50:52.690Z,1.63
2022-08-10T13:55:56.924Z,1.42
2022-08-10T14:01:00.124Z,7.40
2022-08-10T14:06:01.991Z,1.90
2022-08-10T14:11:10.851Z,1.88
2022-08-10T14:16:14.132Z,1.35
2022-08-10T14:21:16.146Z,1.77
2022-08-10T14:26:26.371Z,1.48
2022-08-10T14:31:33.763Z,1.27
2022-08-10T14:36:56.353Z,1.35
2022-08-10T14:42:00.868Z,1.20
2022-08-10T14:47:52.275Z,1.30
2022-08-10T14:52:30.632Z,1.40
2022-08-10T14:58:19.868Z,1.20
2022-08-10T15:02:57.980Z,1.30
2022-08-10T15:08:00.159Z,2.03
2022-08-10T15:13:03.577Z,2.47
2022-08-10T15:18:06.721Z,1.25
2022-08-10T15:23:30.517Z,1.15
2022-08-10T15:29:22.912Z,3.15
2022-08-10T15:34:14.072Z,1.30
2022-08-10T15:40:21.919Z,1.20
2022-08-10T15:44:41.617Z,0.98
2022-08-10T15:50:03.572Z,1.00
2022-08-10T15:55:43.778Z,1.40
2022-08-10T16:00:39.766Z,1.00
2022-08-10T16:06:02.052Z,1.25
2022-08-10T16:11:05.781Z,1.20
2022-08-10T16:16:11.415Z,2.65
2022-08-10T16:21:19.054Z,3.38
2022-08-10T16:26:28.203Z,1.13
2022-08-10T16:31:33.873Z,1.23
2022-08-10T16:36:42.182Z,0.98
2022-08-10T16:42:03.017Z,1.33
2022-08-10T16:47:06.883Z,1.20
2022-08-10T16:52:08.584Z,1.40
2022-08-10T16:57:10.317Z,1.10
2022-08-10T17:02:16.093Z,1.10
2022-08-10T17:07:18.606Z,1.45
2022-08-10T17:12:24.239Z,1.30
2022-08-10T17:17:30.787Z,1.17
2022-08-10T17:22:36.212Z,1.35
2022-08-10T17:28:03.922Z,1.38
2022-08-10T17:33:11.069Z,1.02
2022-08-10T17:38:20.992Z,1.15
2022-08-10T17:43:58.324Z,1.35
2022-08-10T17:48:45.956Z,1.48
2022-08-10T17:53:49.689Z,1.35
2022-08-10T17:59:01.128Z,1.30
2022-08-10T18:04:05.256Z,1.92
2022-08-10T18:09:11.409Z,1.55
2022-08-10T18:14:13.173Z,2.10
2022-08-10T18:19:14.888Z,2.50
2022-08-10T18:24:17.772Z,1.50
2022-08-10T18:29:21.979Z,1.60
2022-08-10T18:34:23.773Z,1.53
2022-08-10T18:39:30.029Z,1.77
2022-08-10T18:44:35.535Z,2.67
2022-08-10T18:49:37.034Z,2.30
2022-08-10T18:54:44.916Z,1.67
2022-08-10T19:00:08.852Z,1.60
2022-08-10T19:05:36.826Z,1.60
2022-08-10T19:11:02.095Z,1.83
2022-08-10T19:16:10.505Z,1.90
2022-08-10T19:21:19.244Z,1.97
2022-08-10T19:26:42.502Z,1.90
2022-08-10T19:32:40.520Z,1.70
2022-08-10T19:38:14.727Z,6.30
2022-08-10T19:43:59.283Z,5.60
2022-08-10T19:49:19.375Z,3.90
2022-08-10T19:54:53.102Z,3.17
2022-08-10T20:00:17.049Z,2.60
2022-08-10T20:05:33.351Z,3.13
2022-08-10T20:10:57.118Z,5.03
2022-08-10T20:16:02.892Z,6.90
2022-08-10T20:21:14.818Z,5.83
2022-08-10T20:26:23.276Z,5.23
2022-08-10T20:31:29.452Z,5.30
2022-08-10T20:36:33.055Z,3.80
2022-08-10T20:42:03.581Z,7.20
2022-08-10T20:47:24.928Z,6.90
2022-08-10T20:52:26.709Z,3.07
2022-08-10T20:58:04.789Z,2.43
2022-08-10T21:03:31.744Z,4.13
2022-08-10T21:08:59.764Z,5.00
2022-08-10T21:14:13.555Z,3.00
2022-08-10T21:19:30.472Z,2.63
2022-08-10T21:24:55.676Z,2.60
2022-08-10T21:30:09.207Z,2.60
2022-08-10T21:35:40.173Z,2.63
2022-08-10T21:41:19.094Z,2.93
2022-08-10T21:46:58.784Z,4.63
2022-08-10T21:52:32.730Z,8.17
2022-08-10T21:58:27.433Z,10.83
2022-08-10T22:03:47.970Z,14.20
2022-08-10T22:09:18.183Z,18.37
2022-08-10T22:14:52.682Z,21.57
2022-08-10T22:20:24.778Z,18.30
2022-08-10T22:26:26.743Z,11.10
2022-08-10T22:32:16.082Z,16.07
2022-08-10T22:38:07.971Z,29.80
2022-08-10T22:43:36.900Z,34.17
2022-08-10T22:49:01.962Z,13.30
2022-08-10T22:54:52.637Z,5.80
2022-08-10T22:59:54.301Z,5.40
2022-08-10T23:04:58.785Z,8.80
2022-08-10T23:10:03.561Z,7.20
2022-08-10T23:15:25.395Z,6.63
2022-08-10T23:20:27.159Z,7.70
2022-08-10T23:25:31.907Z,6.90
2022-08-10T23:30:36.743Z,7.67
2022-08-10T23:36:31.080Z,8.13
2022-08-10T23:41:11.706Z,8.40
2022-08-10T23:46:13.421Z,8.40
2022-08-10T23:51:16.317Z,5.20
2022-08-10T23:56:20.440Z,5.30
